createdAt,value
2023-05-15T00:04:49.163Z,58.34
2023-05-15T00:09:52.049Z,58.40
2023-05-15T00:14:54.854Z,58.67
2023-05-15T00:19:59.313Z,58.86
2023-05-15T00:25:02.094Z,58.88
2023-05-15T00:30:06.050Z,59.07
2023-05-15T00:35:09.515Z,59.04
2023-05-15T00:40:15.504Z,59.17
2023-05-15T00:45:19.646Z,59.29
2023-05-15T00:50:23.773Z,59.13
2023-05-15T00:55:28.014Z,59.31
2023-05-15T01:00:33.128Z,59.27
2023-05-15T01:05:35.862Z,59.27
2023-05-15T01:10:41.697Z,59.47
2023-05-15T01:15:44.439Z,59.55
2023-05-15T01:21:16.203Z,60.26
2023-05-15T01:26:57.654Z,60.14
2023-05-15T01:32:06.932Z,59.88
2023-05-15T01:37:11.728Z,59.85
2023-05-15T01:42:17.168Z,59.51
2023-05-15T01:47:35.329Z,59.33
2023-05-15T01:52:42.946Z,59.29
2023-05-15T01:57:48.064Z,59.39
2023-05-15T02:02:51.483Z,59.55
2023-05-15T02:07:55.604Z,59.57
2023-05-15T02:12:58.973Z,59.64
2023-05-15T02:18:01.950Z,60.08
2023-05-15T02:23:04.778Z,60.17
2023-05-15T02:28:17.214Z,60.69
2023-05-15T02:33:28.424Z,61.39
2023-05-15T02:38:59.174Z,61.35
2023-05-15T02:44:02.892Z,61.07
2023-05-15T02:49:06.098Z,60.89
2023-05-15T02:54:09.788Z,61.07
2023-05-15T02:59:18.681Z,60.98
2023-05-15T03:04:21.655Z,61.20
2023-05-15T03:09:25.597Z,61.43
2023-05-15T03:14:28.496Z,61.55
2023-05-15T03:19:31.498Z,61.50
2023-05-15T03:24:34.301Z,61.03
2023-05-15T03:29:38.633Z,60.89
2023-05-15T03:34:41.541Z,60.77
2023-05-15T03:39:44.440Z,60.54
2023-05-15T03:44:47.258Z,60.41
2023-05-15T03:49:50.253Z,60.32
2023-05-15T03:54:53.462Z,60.13
2023-05-15T03:59:56.369Z,60.07
2023-05-15T04:04:59.397Z,59.70
2023-05-15T04:10:03.114Z,59.43
2023-05-15T04:15:24.907Z,59.22
2023-05-15T04:20:28.061Z,59.07
2023-05-15T04:25:31.167Z,58.59
2023-05-15T04:30:34.269Z,58.37
2023-05-15T04:35:37.180Z,57.96
2023-05-15T04:40:39.978Z,57.61
2023-05-15T04:45:43.027Z,57.32
2023-05-15T04:50:45.993Z,57.18
2023-05-15T04:55:51.669Z,56.72
2023-05-15T05:00:54.593Z,56.50
2023-05-15T05:05:57.474Z,56.24
2023-05-15T05:11:00.585Z,56.00
2023-05-15T05:16:03.699Z,55.66
2023-05-15T05:21:06.897Z,55.42
2023-05-15T05:26:09.811Z,55.91
2023-05-15T05:31:12.706Z,55.37
2023-05-15T05:36:15.998Z,54.87
2023-05-15T05:41:19.036Z,54.67
2023-05-15T05:46:22.063Z,53.87
2023-05-15T05:51:25.037Z,53.68
2023-05-15T05:56:28.048Z,53.05
2023-05-15T06:01:31.261Z,52.43
2023-05-15T06:06:34.775Z,52.22
2023-05-15T06:11:37.692Z,52.03
2023-05-15T06:16:40.738Z,51.60
2023-05-15T06:21:43.997Z,51.57
2023-05-15T06:26:47.316Z,51.26
2023-05-15T06:31:50.222Z,50.70
2023-05-15T06:36:54.151Z,51.26
2023-05-15T06:42:01.415Z,51.54
2023-05-15T06:47:05.308Z,51.33
2023-05-15T06:52:08.634Z,50.85
2023-05-15T06:57:11.710Z,51.00
2023-05-15T07:02:15.620Z,51.56
2023-05-15T07:13:01.394Z,51.90
2023-05-15T07:18:04.752Z,51.67
2023-05-15T07:23:07.921Z,51.11
2023-05-15T07:28:11.433Z,50.55
2023-05-15T07:33:14.337Z,50.42
2023-05-15T07:38:17.268Z,50.38
2023-05-15T07:43:20.349Z,50.66
2023-05-15T07:48:23.571Z,50.32
2023-05-15T07:53:26.673Z,49.97
2023-05-15T07:58:29.787Z,50.19
2023-05-15T08:03:34.255Z,50.34
2023-05-15T08:08:37.339Z,50.73
2023-05-15T08:13:40.340Z,51.80
2023-05-15T08:18:43.174Z,52.85
2023-05-15T08:23:46.264Z,51.82
2023-05-15T08:28:49.350Z,52.59
2023-05-15T08:33:52.263Z,53.94
2023-05-15T08:38:55.161Z,54.42
2023-05-15T08:43:58.825Z,55.01
2023-05-15T08:49:11.717Z,55.25
2023-05-15T08:54:17.224Z,54.38
2023-05-15T08:59:20.297Z,54.66
2023-05-15T09:04:23.216Z,55.09
2023-05-15T09:09:28.032Z,55.16
2023-05-15T09:14:31.174Z,54.92
2023-05-15T09:19:39.262Z,53.82
2023-05-15T09:24:42.101Z,53.15
2023-05-15T09:29:45.613Z,52.20
2023-05-15T09:34:48.516Z,51.04
2023-05-15T09:39:51.547Z,48.90
2023-05-15T09:44:54.430Z,47.58
2023-05-15T09:49:57.438Z,46.18
2023-05-15T09:55:00.345Z,45.43
2023-05-15T10:00:10.722Z,47.55
2023-05-15T10:05:13.637Z,48.57
2023-05-15T10:10:16.641Z,49.57
2023-05-15T10:15:23.228Z,50.98
2023-05-15T10:20:28.367Z,52.61
2023-05-15T10:25:58.620Z,55.04
2023-05-15T10:31:03.487Z,57.18
2023-05-15T10:36:08.691Z,60.56
2023-05-15T10:41:17.632Z,63.63
2023-05-15T10:46:22.251Z,66.77
2023-05-15T10:51:27.969Z,69.61
2023-05-15T10:56:32.788Z,71.56
2023-05-15T11:01:38.191Z,74.84
2023-05-15T11:06:46.435Z,77.88
2023-05-15T11:11:52.704Z,82.19
2023-05-15T11:16:56.042Z,85.44
2023-05-15T11:22:09.065Z,87.93
2023-05-15T11:27:14.155Z,87.98
2023-05-15T11:32:52.427Z,88.24
2023-05-15T11:38:02.134Z,87.57
2023-05-15T11:43:08.393Z,87.10
2023-05-15T11:48:13.826Z,86.49
2023-05-15T11:53:18.304Z,85.89
2023-05-15T11:58:22.860Z,85.97
2023-05-15T12:03:38.510Z,86.98
2023-05-15T12:08:45.427Z,88.16
2023-05-15T12:13:52.081Z,89.61
2023-05-15T12:18:58.079Z,90.64
2023-05-15T12:24:08.101Z,91.07
2023-05-15T12:29:11.827Z,91.35
2023-05-15T12:34:14.772Z,91.12
2023-05-15T12:39:17.631Z,90.02
2023-05-15T12:44:21.195Z,90.63
2023-05-15T12:49:24.258Z,91.32
2023-05-15T12:54:27.072Z,93.49
2023-05-15T12:59:30.276Z,94.27
2023-05-15T13:04:33.694Z,95.08
2023-05-15T13:09:36.996Z,95.60
2023-05-15T13:14:42.250Z,96.46
2023-05-15T13:19:45.182Z,96.89
2023-05-15T13:24:48.058Z,98.29
2023-05-15T13:29:51.170Z,99.01
2023-05-15T13:34:55.113Z,99.87
2023-05-15T13:39:58.416Z,100.00
2023-05-15T13:45:01.429Z,100.00
2023-05-15T13:50:05.102Z,100.00
2023-05-15T13:55:12.146Z,100.00
2023-05-15T14:00:16.329Z,100.00
2023-05-15T14:05:19.290Z,100.00
2023-05-15T14:10:24.105Z,100.00
2023-05-15T14:15:27.122Z,100.00
2023-05-15T14:20:30.055Z,100.00
2023-05-15T14:25:32.964Z,100.00
2023-05-15T14:30:36.164Z,100.00
2023-05-15T14:35:39.068Z,100.00
2023-05-15T14:40:43.230Z,100.00
2023-05-15T14:45:46.128Z,100.00
2023-05-15T14:50:49.316Z,100.00
2023-05-15T14:55:52.526Z,100.00
2023-05-15T15:00:55.432Z,100.00
2023-05-15T15:05:58.437Z,100.00
2023-05-15T15:11:02.254Z,100.00
2023-05-15T15:16:06.136Z,100.00
2023-05-15T15:21:09.506Z,100.00
2023-05-15T15:26:12.515Z,100.00
2023-05-15T15:31:16.205Z,100.00
2023-05-15T15:36:19.349Z,100.00
2023-05-15T15:41:23.759Z,100.00
2023-05-15T15:46:27.710Z,100.00
2023-05-15T15:51:30.728Z,100.00
2023-05-15T15:56:33.624Z,100.00
2023-05-15T16:01:36.912Z,100.00
2023-05-15T16:06:40.355Z,100.00
2023-05-15T16:11:43.260Z,100.00
2023-05-15T16:16:46.699Z,100.00
2023-05-15T16:21:49.891Z,100.00
2023-05-15T16:26:53.024Z,100.00
2023-05-15T16:31:58.048Z,100.00
2023-05-15T16:37:01.057Z,100.00
2023-05-15T16:42:04.070Z,100.00
2023-05-15T16:47:07.520Z,100.00
2023-05-15T16:52:10.817Z,100.00
2023-05-15T16:57:14.011Z,100.00
2023-05-15T17:02:16.865Z,100.00
2023-05-15T17:07:20.325Z,100.00
2023-05-15T17:12:23.634Z,100.00
2023-05-15T17:17:26.898Z,100.00
2023-05-15T17:22:30.165Z,100.00
2023-05-15T17:27:35.631Z,100.00
2023-05-15T17:32:40.119Z,100.00
2023-05-15T17:37:43.188Z,100.00
2023-05-15T17:42:46.089Z,100.00
2023-05-15T17:47:49.358Z,100.00
2023-05-15T17:52:52.306Z,100.00
2023-05-15T17:57:55.206Z,100.00
2023-05-15T18:02:58.276Z,100.00
2023-05-15T18:08:03.705Z,100.00
2023-05-15T18:13:06.691Z,100.00
2023-05-15T18:18:09.637Z,100.00
2023-05-15T18:23:12.593Z,100.00
2023-05-15T18:28:15.496Z,100.00
2023-05-15T18:33:18.505Z,100.00
2023-05-15T18:38:21.413Z,100.00
2023-05-15T18:43:24.429Z,100.00
2023-05-15T18:48:27.546Z,100.00
2023-05-15T18:53:30.434Z,100.00
2023-05-15T18:58:33.541Z,100.00
2023-05-15T19:03:36.722Z,100.00
2023-05-15T19:08:39.656Z,100.00
2023-05-15T19:13:42.555Z,100.00
2023-05-15T19:18:45.507Z,100.00
2023-05-15T19:23:50.886Z,100.00
2023-05-15T19:28:53.726Z,100.00
2023-05-15T19:33:57.354Z,100.00
2023-05-15T19:39:00.268Z,100.00
2023-05-15T19:44:04.502Z,100.00
2023-05-15T19:49:08.875Z,100.00
2023-05-15T19:54:11.828Z,100.00
2023-05-15T19:59:15.037Z,100.00
2023-05-15T20:04:18.057Z,100.00
2023-05-15T20:09:20.950Z,100.00
2023-05-15T20:14:23.750Z,100.00
2023-05-15T20:19:27.703Z,100.00
2023-05-15T20:24:32.441Z,100.00
2023-05-15T20:29:36.561Z,100.00
2023-05-15T20:34:42.591Z,100.00
2023-05-15T20:39:46.207Z,100.00
2023-05-15T20:44:50.604Z,100.00
2023-05-15T20:49:53.504Z,100.00
2023-05-15T20:54:56.408Z,100.00
2023-05-15T20:59:59.309Z,100.00
2023-05-15T21:05:02.931Z,100.00
2023-05-15T21:10:06.865Z,100.00
2023-05-15T21:15:10.267Z,100.00
2023-05-15T21:20:13.200Z,100.00
2023-05-15T21:25:19.190Z,100.00
2023-05-15T21:30:22.178Z,100.00
2023-05-15T21:35:25.709Z,100.00
2023-05-15T21:40:28.910Z,100.00
2023-05-15T21:45:31.935Z,100.00
2023-05-15T21:50:35.323Z,100.00
2023-05-15T21:55:38.177Z,100.00
2023-05-15T22:00:41.307Z,100.00
2023-05-15T22:05:45.530Z,100.00
2023-05-15T22:10:49.598Z,100.00
2023-05-15T22:15:52.696Z,100.00
2023-05-15T22:20:55.819Z,100.00
2023-05-15T22:25:58.738Z,100.00
2023-05-15T22:31:01.723Z,100.00
2023-05-15T22:36:06.326Z,100.00
2023-05-15T22:41:09.814Z,100.00
2023-05-15T22:46:12.837Z,100.00
2023-05-15T22:51:16.420Z,100.00
2023-05-15T22:56:19.336Z,100.00
2023-05-15T23:01:22.270Z,100.00
2023-05-15T23:06:25.948Z,100.00
2023-05-15T23:11:28.882Z,100.00
2023-05-15T23:16:31.963Z,100.00
2023-05-15T23:21:35.068Z,100.00
2023-05-15T23:26:38.361Z,100.00
2023-05-15T23:31:43.132Z,100.00
2023-05-15T23:36:46.235Z,100.00
2023-05-15T23:41:49.092Z,100.00
2023-05-15T23:46:51.994Z,100.00
2023-05-15T23:51:54.952Z,100.00
2023-05-15T23:56:57.862Z,100.00
